Data Viewer
| City | State | Eastern Time | Source | Temp | DewPt | RH | BP | 5 Min Precip | Wind Speed | Wind Dir | 5 Min Wind Max | 5 Min Wind Max Dir |
|---|---|---|---|---|---|---|---|---|---|---|---|---|
| Quakertown | PA | 2026-05-07 03:55 | AWOS | 48 | 48 | 100 | 29.86 | 0 | N | |||
| Quakertown | PA | 2026-05-07 19:15 | AWOS | 61 | 32 | 34 | 29.77 | 0 | N | |||
| Quakertown | PA | 2026-05-07 21:15 | AWOS | 52 | 41 | 66 | 29.81 | 0 | N | |||
| Quakertown | PA | 2026-05-07 20:55 | AWOS | 54 | 39 | 58 | 29.80 | 0 | N | |||
| Quakertown | PA | 2026-05-07 20:35 | AWOS | 55 | 34 | 44 | 29.79 | 0 | N | |||
| Quakertown | PA | 2026-05-07 20:15 | AWOS | 55 | 37 | 51 | 29.78 | 0 | N | |||
| Quakertown | PA | 2026-05-07 19:55 | AWOS | 59 | 34 | 39 | 29.78 | 0 | N | |||
| Quakertown | PA | 2026-05-07 19:35 | AWOS | 61 | 32 | 34 | 29.77 | 0 | N | |||
| Quakertown | PA | 2026-05-07 18:55 | AWOS | 63 | 32 | 32 | 29.77 | 0 | N | |||
| Quakertown | PA | 2026-05-07 21:55 | AWOS | 52 | 41 | 66 | 29.81 | 0 | N | |||
| Quakertown | PA | 2026-05-07 18:35 | AWOS | 63 | 32 | 32 | 29.77 | 6 | ||||
| Quakertown | PA | 2026-05-07 18:15 | AWOS | 63 | 32 | 32 | 29.77 | 5 | W | |||
| Quakertown | PA | 2026-05-07 17:55 | AWOS | 63 | 32 | 32 | 29.77 | 7 | ||||
| Quakertown | PA | 2026-05-07 17:35 | AWOS | 64 | 32 | 30 | 29.77 | 7 | WSW | |||
| Quakertown | PA | 2026-05-07 17:15 | AWOS | 63 | 34 | 34 | 29.77 | 6 | ||||
| Quakertown | PA | 2026-05-07 16:55 | AWOS | 63 | 34 | 34 | 29.77 | 5 | ||||
| Quakertown | PA | 2026-05-07 21:35 | AWOS | 52 | 41 | 66 | 29.81 | 0 | N | |||
| Quakertown | PA | 2026-05-07 22:15 | AWOS | 50 | 43 | 76 | 29.82 | 0 | N | |||
| Quakertown | PA | 2026-05-07 16:15 | AWOS | 63 | 32 | 32 | 29.77 | 6 | ||||
| Quakertown | PA | 2026-05-08 01:15 | AWOS | 54 | 39 | 58 | 29.84 | 7 | ||||
| Quakertown | PA | 2026-05-08 03:15 | AWOS | 48 | 39 | 71 | 29.89 | 6 | ||||
| Quakertown | PA | 2026-05-08 02:55 | AWOS | 48 | 39 | 71 | 29.88 | 9 | NNW | |||
| Quakertown | PA | 2026-05-08 02:35 | AWOS | 50 | 39 | 66 | 29.88 | 10 | NW | |||
| Quakertown | PA | 2026-05-08 02:15 | AWOS | 50 | 41 | 71 | 29.88 | 9 | NW | |||
| Quakertown | PA | 2026-05-08 01:55 | AWOS | 52 | 39 | 62 | 29.86 | 15 | WNW | |||
| Quakertown | PA | 2026-05-08 01:35 | AWOS | 52 | 37 | 58 | 29.84 | 6 | ||||
| Quakertown | PA | 2026-05-08 00:55 | AWOS | 52 | 37 | 58 | 29.84 | 10 | NNW | |||
| Quakertown | PA | 2026-05-07 22:35 | AWOS | 50 | 43 | 76 | 29.82 | 0 | N | |||
| Quakertown | PA | 2026-05-08 00:35 | AWOS | 52 | 45 | 76 | 29.82 | 0 | N | |||
| Quakertown | PA | 2026-05-08 00:15 | AWOS | 50 | 45 | 82 | 29.82 | 0 | N | |||
| Quakertown | PA | 2026-05-07 23:55 | AWOS | 52 | 46 | 82 | 29.82 | 0 | N | |||
| Quakertown | PA | 2026-05-07 23:35 | AWOS | 50 | 45 | 82 | 29.83 | 0 | N | |||
| Quakertown | PA | 2026-05-07 23:15 | AWOS | 50 | 43 | 76 | 29.82 | 0 | N | |||
| Quakertown | PA | 2026-05-07 22:55 | AWOS | 50 | 45 | 82 | 29.82 | 0 | N | |||
| Quakertown | PA | 2026-05-07 16:35 | AWOS | 64 | 34 | 32 | 29.77 | 9 | W | |||
| Quakertown | PA | 2026-05-07 15:55 | AWOS | 63 | 32 | 32 | 29.77 | 5 | ||||
| Quakertown | PA | 2026-05-07 04:15 | AWOS | 48 | 48 | 100 | 29.85 | 0 | N | |||
| Quakertown | PA | 2026-05-07 06:55 | AWOS | 48 | 46 | 93 | 29.88 | 5 | ||||
| Quakertown | PA | 2026-05-07 08:55 | AWOS | 50 | 37 | 62 | 29.91 | 10 | N | |||
| Quakertown | PA | 2026-05-07 08:35 | AWOS | 52 | 39 | 62 | 29.91 | 9 | N | |||
| Quakertown | PA | 2026-05-07 08:15 | AWOS | 50 | 41 | 71 | 29.90 | 7 | ||||
| Quakertown | PA | 2026-05-07 07:55 | AWOS | 50 | 46 | 87 | 29.90 | 6 | ||||
| Quakertown | PA | 2026-05-07 07:35 | AWOS | 48 | 46 | 93 | 29.90 | 5 | ||||
| Quakertown | PA | 2026-05-07 07:15 | AWOS | 48 | 46 | 93 | 29.89 | 5 | NNW | |||
| Quakertown | PA | 2026-05-07 06:35 | AWOS | 48 | 48 | 100 | 29.87 | 5 | ||||
| Quakertown | PA | 2026-05-07 09:35 | AWOS | 54 | 39 | 58 | 29.91 | 7 | NNW | |||
| Quakertown | PA | 2026-05-07 06:15 | AWOS | 48 | 48 | 100 | 29.86 | 0 | N | |||
| Quakertown | PA | 2026-05-07 05:55 | AWOS | 48 | 48 | 100 | 29.86 | 0 | N | |||
| Quakertown | PA | 2026-05-07 05:35 | AWOS | 48 | 48 | 100 | 29.85 | 0 | N | |||
| Quakertown | PA | 2026-05-07 05:15 | AWOS | 48 | 48 | 100 | 29.84 | 0 | N | |||
| Quakertown | PA | 2026-05-07 04:55 | AWOS | 48 | 48 | 100 | 29.84 | 0 | N | |||
| Quakertown | PA | 2026-05-07 04:35 | AWOS | 48 | 48 | 100 | 29.85 | 0 | N | |||
| Quakertown | PA | 2026-05-07 09:15 | AWOS | 54 | 39 | 58 | 29.91 | 5 | ||||
| Quakertown | PA | 2026-05-07 09:55 | AWOS | 54 | 35 | 50 | 29.91 | 8 | NW | |||
| Quakertown | PA | 2026-05-07 15:35 | AWOS | 63 | 32 | 32 | 29.78 | 3 | ||||
| Quakertown | PA | 2026-05-07 13:15 | AWOS | 61 | 34 | 36 | 29.83 | 9 | NW | |||
| Quakertown | PA | 2026-05-07 15:15 | AWOS | 64 | 34 | 32 | 29.79 | 7 | ||||
| Quakertown | PA | 2026-05-07 14:55 | AWOS | 63 | 32 | 32 | 29.79 | 10 | NNW | |||
| Quakertown | PA | 2026-05-07 14:35 | AWOS | 63 | 34 | 34 | 29.80 | 10 | NW | |||
| Quakertown | PA | 2026-05-07 14:15 | AWOS | 63 | 34 | 34 | 29.81 | 6 | ||||
| Quakertown | PA | 2026-05-07 13:55 | AWOS | 61 | 32 | 34 | 29.81 | 6 | ||||
| Quakertown | PA | 2026-05-07 13:35 | AWOS | 61 | 35 | 39 | 29.82 | 5 | ||||
| Quakertown | PA | 2026-05-07 12:55 | AWOS | 61 | 34 | 36 | 29.84 | 6 | ||||
| Quakertown | PA | 2026-05-07 10:15 | AWOS | 55 | 37 | 51 | 29.90 | 6 | ||||
| Quakertown | PA | 2026-05-07 12:15 | AWOS | 59 | 32 | 36 | 29.86 | 7 | ||||
| Quakertown | PA | 2026-05-07 11:55 | AWOS | 57 | 32 | 38 | 29.86 | 9 | N | |||
| Quakertown | PA | 2026-05-07 11:35 | AWOS | 57 | 34 | 41 | 29.87 | 9 | NW | |||
| Quakertown | PA | 2026-05-07 11:15 | AWOS | 57 | 34 | 41 | 29.88 | 6 | ||||
| Quakertown | PA | 2026-05-07 10:55 | AWOS | 55 | 35 | 47 | 29.89 | 8 | W | |||
| Quakertown | PA | 2026-05-07 10:35 | AWOS | 55 | 34 | 44 | 29.89 | 12 | NNW | |||
| Quakertown | PA | 2026-05-08 03:35 | AWOS | 46 | 39 | 76 | 29.89 | 0 | N |
data collection created in 0.010976076126099 (queried in 0.002353) rendered in: 9.7990036010742E-5

